Time;durP1;ratioP1;P1;durP2;ratioP2;P2;SDS_P1;SDS_P2;PMS_P1;PMS_P2;Temp;Humidity;BMP_temperature;BMP_pressure;BME280_temperature;BME280_humidity;BME280_pressure;Samples;Min_cycle;Max_cycle;Signal;HPM_P1;HPM_P2
2022/02/18 00:01:45;;;;;;;15.03;3.13;;;7.20;99.90;;;7.98;100.00;97877.34;5035682;28;20485;-79
2022/02/18 00:04:15;;;;;;;20.80;4.00;;;7.30;99.90;;;7.91;100.00;97873.81;5034086;28;21191;-79
2022/02/18 00:06:46;;;;;;;17.13;3.30;;;7.20;99.90;;;7.85;100.00;97873.69;5034603;28;20476;-78
2022/02/18 00:09:18;;;;;;;15.40;3.07;;;7.10;99.90;;;7.88;100.00;97865.56;5032770;28;20485;-78
2022/02/18 00:11:48;;;;;;;19.53;3.60;;;7.10;99.90;;;7.89;100.00;97867.16;5034825;28;20485;-79
2022/02/18 00:14:17;;;;;;;23.60;4.53;;;7.20;99.90;;;7.89;100.00;97867.16;5038071;28;20543;-79
2022/02/18 00:16:47;;;;;;;22.00;4.20;;;7.20;99.90;;;7.85;100.00;97871.91;5031485;28;20872;-79
2022/02/18 00:19:18;;;;;;;17.20;3.80;;;7.10;99.90;;;7.88;100.00;97868.16;5031829;28;20464;-79
2022/02/18 00:21:49;;;;;;;23.60;3.43;;;7.20;99.90;;;7.90;100.00;97874.00;5033385;28;20509;-79
2022/02/18 00:24:22;;;;;;;22.43;4.30;;;7.20;99.90;;;7.93;100.00;97873.66;5033619;28;20555;-78
2022/02/18 00:26:53;;;;;;;17.13;3.50;;;7.20;99.90;;;7.93;100.00;97887.47;5034169;28;20496;-79
2022/02/18 00:29:23;;;;;;;18.53;3.93;;;7.20;99.90;;;7.88;100.00;97881.19;5033393;28;20841;-78
2022/02/18 00:31:53;;;;;;;20.43;3.43;;;7.10;99.90;;;7.90;100.00;97879.19;5032020;28;20480;-78
2022/02/18 00:34:23;;;;;;;16.43;3.33;;;7.20;99.90;;;7.93;100.00;97873.66;5032039;28;20466;-78
2022/02/18 00:36:53;;;;;;;23.27;4.07;;;7.30;99.90;;;7.94;100.00;97870.06;5032798;28;20465;-79
2022/02/18 00:39:25;;;;;;;20.73;3.40;;;7.30;99.90;;;7.90;100.00;97855.78;5030691;28;20464;-79
2022/02/18 00:41:57;;;;;;;16.73;3.20;;;7.30;99.90;;;7.93;100.00;97871.03;5033521;28;20461;-79
2022/02/18 00:44:26;;;;;;;7.70;2.20;;;7.30;99.90;;;7.98;100.00;97873.94;5032562;28;20454;-78
2022/02/18 00:46:55;;;;;;;15.77;2.67;;;7.30;99.90;;;8.01;100.00;97865.78;5035214;28;21938;-79
2022/02/18 00:49:26;;;;;;;20.63;3.70;;;7.40;99.90;;;8.07;100.00;97871.09;5033437;28;21033;-78
2022/02/18 00:51:55;;;;;;;17.77;3.40;;;7.50;99.90;;;8.09;100.00;97865.69;5035066;28;21133;-78
2022/02/18 00:54:27;;;;;;;10.37;3.10;;;7.60;99.90;;;8.12;100.00;97869.75;5033202;28;20522;-78
2022/02/18 00:56:57;;;;;;;18.77;3.80;;;7.60;99.90;;;8.18;100.00;97882.88;5032578;28;20530;-79
2022/02/18 00:59:26;;;;;;;27.43;4.07;;;7.60;99.90;;;8.21;100.00;97882.53;5035177;28;20593;-79
2022/02/18 01:01:56;;;;;;;24.53;4.50;;;7.60;99.90;;;8.27;100.00;97866.19;5030228;28;20489;-79
2022/02/18 01:04:26;;;;;;;16.30;3.73;;;7.60;99.90;;;8.30;100.00;97865.88;5032434;28;20475;-79
2022/02/18 01:06:56;;;;;;;19.97;3.40;;;7.70;99.90;;;8.32;100.00;97879.53;5031616;28;20466;-79
2022/02/18 01:09:27;;;;;;;18.77;3.53;;;7.70;99.90;;;8.35;100.00;97878.38;5033471;28;20465;-78
2022/02/18 01:11:57;;;;;;;16.57;3.77;;;7.70;99.90;;;8.39;100.00;97874.44;5031846;28;20504;-79
2022/02/18 01:14:27;;;;;;;22.53;3.60;;;7.80;99.90;;;8.41;100.00;97883.69;5029698;28;20468;-78
2022/02/18 01:16:56;;;;;;;16.47;3.73;;;7.90;99.90;;;8.42;100.00;97874.06;5029457;28;20605;-78
2022/02/18 01:19:25;;;;;;;22.83;4.10;;;7.90;99.90;;;8.44;100.00;97867.69;5033021;28;20462;-78
2022/02/18 01:21:56;;;;;;;18.73;3.90;;;7.90;99.90;;;8.43;100.00;97860.88;5031438;28;20480;-79
2022/02/18 01:24:27;;;;;;;18.33;3.00;;;7.90;99.90;;;8.47;100.00;97851.69;5027428;28;20467;-79
2022/02/18 01:26:56;;;;;;;19.13;3.50;;;7.80;99.90;;;8.47;100.00;97849.09;5031202;28;20469;-79
2022/02/18 01:29:25;;;;;;;33.90;5.00;;;7.80;99.90;;;8.47;100.00;97846.47;5031395;28;21268;-79
2022/02/18 01:31:55;;;;;;;26.27;3.90;;;7.90;99.90;;;8.51;100.00;97849.53;5031839;28;20493;-79
2022/02/18 01:34:24;;;;;;;24.17;3.57;;;7.90;99.90;;;8.47;100.00;97846.47;5031570;28;20469;-79
2022/02/18 01:36:54;;;;;;;32.43;3.87;;;7.90;99.90;;;8.49;100.00;97839.31;5032517;28;20836;-79
2022/02/18 01:39:23;;;;;;;23.10;4.10;;;7.90;99.90;;;8.49;100.00;97826.28;5028791;28;20950;-79
2022/02/18 01:41:55;;;;;;;16.77;3.20;;;8.00;99.90;;;8.47;100.00;97833.44;5029950;28;20462;-79
2022/02/18 01:44:39;;;;;;;21.73;3.63;;;7.90;99.90;;;8.48;100.00;97836.88;5033247;28;20450;-79
2022/02/18 01:47:13;;;;;;;17.70;3.37;;;7.90;99.90;;;8.45;100.00;97830.22;5030120;28;20468;-79
2022/02/18 01:49:43;;;;;;;20.70;4.40;;;7.80;99.90;;;8.47;100.00;97824.81;5031763;28;20935;-79
2022/02/18 01:52:14;;;;;;;20.07;3.23;;;7.90;99.90;;;8.46;100.00;97823.22;5035301;28;20543;-79
2022/02/18 01:54:43;;;;;;;20.13;4.13;;;7.90;99.90;;;8.46;100.00;97829.25;5036391;28;20533;-79
2022/02/18 01:57:15;;;;;;;22.43;3.90;;;7.90;99.90;;;8.47;100.00;97838.66;5035503;28;20519;-79
2022/02/18 01:59:44;;;;;;;15.60;3.83;;;7.90;99.90;;;8.47;100.00;97825.63;5035346;28;20463;-78
2022/02/18 02:02:14;;;;;;;22.33;4.30;;;8.00;99.90;;;8.49;100.00;97817.66;5035461;28;20514;-79
2022/02/18 02:04:47;;;;;;;16.60;3.50;;;7.90;99.90;;;8.49;100.00;97802.84;5036357;28;20488;-79
2022/02/18 02:07:17;;;;;;;27.33;4.30;;;8.00;99.90;;;8.50;100.00;97799.22;5036527;28;20992;-79
2022/02/18 02:09:49;;;;;;;15.17;3.60;;;7.90;99.90;;;8.50;100.00;97803.66;5035087;28;20449;-79
2022/02/18 02:12:21;;;;;;;21.67;4.30;;;7.80;99.90;;;8.47;100.00;97790.94;5034182;28;20815;-79
2022/02/18 02:14:52;;;;;;;12.20;2.90;;;7.80;99.90;;;8.46;100.00;97797.16;5033339;28;20484;-79
2022/02/18 02:17:22;;;;;;;23.73;4.00;;;7.70;99.90;;;8.44;100.00;97804.34;5034144;28;20868;-79
2022/02/18 02:19:53;;;;;;;17.17;3.10;;;7.80;99.90;;;8.43;100.00;97800.94;5029563;28;20546;-79
2022/02/18 02:22:27;;;;;;;25.13;3.97;;;7.80;99.90;;;8.40;100.00;97784.88;5034664;28;20466;-79
2022/02/18 02:24:57;;;;;;;19.50;3.00;;;7.80;99.90;;;8.37;100.00;97785.19;5036369;28;20489;-79
2022/02/18 02:27:26;;;;;;;27.87;4.53;;;7.70;99.90;;;8.36;100.00;97781.81;5035816;28;20460;-79
2022/02/18 02:29:56;;;;;;;21.37;3.90;;;7.70;99.90;;;8.35;100.00;97774.97;5030945;28;20867;-79
2022/02/18 02:32:26;;;;;;;20.77;4.30;;;7.80;99.90;;;8.36;100.00;97776.59;5031030;28;20488;-79
2022/02/18 02:34:56;;;;;;;22.73;3.13;;;7.90;99.90;;;8.34;100.00;97762.94;5035621;28;20971;-79
2022/02/18 02:37:27;;;;;;;19.97;3.70;;;7.80;99.90;;;8.35;100.00;97748.13;5031741;28;20465;-79
2022/02/18 02:39:58;;;;;;;19.93;3.37;;;7.70;99.90;;;8.32;100.00;97738.06;5029467;28;20497;-79
2022/02/18 02:42:28;;;;;;;25.87;4.10;;;7.60;99.90;;;8.35;100.00;97737.69;5026872;28;20469;-79
2022/02/18 02:44:58;;;;;;;20.50;4.67;;;7.70;99.90;;;8.36;100.00;97740.13;5029368;28;20457;-79
2022/02/18 02:47:28;;;;;;;18.67;4.20;;;7.80;99.90;;;8.35;100.00;97743.72;5028810;28;20805;-79
2022/02/18 02:49:58;;;;;;;25.57;4.80;;;7.80;99.90;;;8.31;100.00;97733.84;5028200;28;20465;-79
2022/02/18 02:52:29;;;;;;;19.77;3.80;;;7.70;99.90;;;8.31;100.00;97737.25;5030734;28;20688;-79
2022/02/18 02:55:00;;;;;;;16.93;3.17;;;7.60;99.90;;;8.30;100.00;97740.03;5030800;28;21174;-79
2022/02/18 02:57:29;;;;;;;17.83;3.50;;;7.60;99.90;;;8.24;100.00;97741.53;5027516;28;20461;-79
2022/02/18 02:59:58;;;;;;;33.10;5.73;;;7.50;99.90;;;8.25;100.00;97734.53;5028568;28;20988;-79
2022/02/18 03:02:28;;;;;;;21.20;4.30;;;7.60;99.90;;;8.25;100.00;97732.72;5030972;28;20724;-79
2022/02/18 03:04:58;;;;;;;20.47;3.83;;;7.70;99.90;;;8.25;100.00;97724.91;5027077;28;20456;-79
2022/02/18 03:07:29;;;;;;;20.03;3.93;;;7.70;99.90;;;8.24;100.00;97735.50;5028597;28;20944;-78
2022/02/18 03:09:58;;;;;;;18.30;4.57;;;7.60;99.90;;;8.25;100.00;97737.94;5031456;28;20522;-79
2022/02/18 03:12:27;;;;;;;16.47;3.53;;;7.60;99.90;;;8.22;100.00;97735.69;5030850;28;20501;-78
2022/02/18 03:14:56;;;;;;;31.33;3.70;;;7.60;99.90;;;8.22;100.00;97732.28;5029742;28;20565;-79
2022/02/18 03:17:26;;;;;;;22.17;3.90;;;7.60;99.90;;;8.20;100.00;97732.44;5029184;28;20530;-79
2022/02/18 03:19:56;;;;;;;22.20;4.23;;;7.50;99.90;;;8.18;100.00;97726.63;5030494;28;20839;-79
2022/02/18 03:22:25;;;;;;;25.17;4.00;;;7.40;99.90;;;8.16;100.00;97720.78;5030221;28;20462;-79
2022/02/18 03:24:57;;;;;;;22.67;3.87;;;7.40;99.90;;;8.18;100.00;97713.59;5029178;28;21041;-79
2022/02/18 03:27:27;;;;;;;19.63;3.73;;;7.40;99.90;;;8.16;100.00;97710.34;5035933;28;20458;-79
2022/02/18 03:29:56;;;;;;;18.90;4.10;;;7.40;99.90;;;8.09;100.00;97706.84;5032880;28;20466;-79
2022/02/18 03:32:24;;;;;;;19.13;3.80;;;7.30;99.90;;;8.05;100.00;97703.00;5031740;28;20490;-79
2022/02/18 03:34:55;;;;;;;10.83;3.13;;;7.20;99.90;;;8.00;100.00;97697.53;5036370;28;20496;-78
2022/02/18 03:37:26;;;;;;;17.50;2.77;;;7.20;99.90;;;7.99;100.00;97698.50;5037142;28;20469;-78
2022/02/18 03:39:57;;;;;;;20.10;4.33;;;7.10;99.90;;;7.92;100.00;97684.59;5034013;28;20468;-79
2022/02/18 03:42:26;;;;;;;21.03;3.20;;;7.10;99.90;;;7.93;100.00;97691.41;5036735;28;20544;-79
2022/02/18 03:44:56;;;;;;;15.20;3.40;;;7.10;99.90;;;7.86;100.00;97690.50;5034635;28;20461;-78
2022/02/18 03:47:26;;;;;;;13.20;3.37;;;7.10;99.90;;;7.85;100.00;97683.69;5030500;28;20472;-79
2022/02/18 03:49:57;;;;;;;15.03;3.70;;;7.00;99.90;;;7.87;100.00;97676.53;5032063;28;20473;-79
2022/02/18 03:52:27;;;;;;;15.87;3.27;;;7.00;99.90;;;7.86;100.00;97675.72;5033215;28;20655;-78
2022/02/18 03:54:59;;;;;;;18.63;3.70;;;7.00;99.90;;;7.83;100.00;97667.44;5034174;28;20479;-78
2022/02/18 03:57:29;;;;;;;34.67;4.23;;;7.00;99.90;;;7.78;100.00;97667.97;5038016;28;20489;-78
2022/02/18 03:59:58;;;;;;;17.30;3.00;;;7.10;99.90;;;7.76;100.00;97659.53;5031478;28;20523;-78
2022/02/18 04:02:29;;;;;;;17.67;3.30;;;7.00;99.90;;;7.77;100.00;97649.94;5030356;28;20484;-78
2022/02/18 04:05:00;;;;;;;26.33;3.73;;;7.00;99.90;;;7.76;100.00;97637.91;5030614;28;20490;-78
2022/02/18 04:07:31;;;;;;;21.00;3.20;;;6.90;99.90;;;7.70;100.00;97633.44;5032774;28;20473;-78
2022/02/18 04:10:02;;;;;;;13.73;2.80;;;6.90;99.90;;;7.69;100.00;97626.59;5025746;28;20497;-78
2022/02/18 04:12:32;;;;;;;16.70;3.67;;;6.80;99.90;;;7.63;100.00;97629.94;5034879;28;20487;-78
2022/02/18 04:15:03;;;;;;;19.30;3.00;;;6.80;99.90;;;7.62;100.00;97625.69;5032209;28;20802;-78
2022/02/18 04:17:33;;;;;;;15.60;2.77;;;6.80;99.90;;;7.64;100.00;97626.31;5031068;28;20462;-79
2022/02/18 04:20:03;;;;;;;19.87;4.30;;;6.80;99.90;;;7.59;100.00;97621.69;5033323;28;20507;-79
2022/02/18 04:22:53;;;;;;;16.77;3.10;;;6.80;99.90;;;7.60;100.00;97607.69;5032968;28;20473;-78
2022/02/18 04:25:24;;;;;;;16.03;4.10;;;6.90;99.90;;;7.60;100.00;97605.88;5036639;28;20542;-78
2022/02/18 04:27:58;;;;;;;22.27;4.03;;;6.90;99.90;;;7.64;100.00;97598.50;5038746;28;20458;-78
2022/02/18 04:30:29;;;;;;;29.77;4.30;;;6.80;99.90;;;7.63;100.00;97596.09;5037787;28;20461;-78
2022/02/18 04:32:59;;;;;;;18.43;3.17;;;7.00;99.90;;;7.66;100.00;97603.56;5036013;28;20489;-78
2022/02/18 04:35:28;;;;;;;21.43;7.03;;;6.90;99.90;;;7.60;100.00;97600.66;5034613;28;20985;-82
2022/02/18 04:38:00;;;;;;;25.73;8.07;;;7.00;99.90;;;7.63;100.00;97585.69;5032531;28;20832;-78
2022/02/18 04:40:31;;;;;;;23.07;3.90;;;7.00;99.90;;;7.64;100.00;97582.09;5034158;28;20497;-78
2022/02/18 04:43:02;;;;;;;18.60;3.47;;;6.90;99.90;;;7.65;100.00;97555.91;5034173;28;20462;-78
2022/02/18 04:45:33;;;;;;;11.73;3.03;;;6.90;99.90;;;7.66;100.00;97554.91;5030401;28;20462;-80
2022/02/18 04:48:03;;;;;;;21.60;4.00;;;6.90;99.90;;;7.64;100.00;97561.28;5033009;28;20482;-78
2022/02/18 04:50:34;;;;;;;14.80;3.80;;;6.80;99.90;;;7.63;100.00;97550.09;5034547;28;20501;-79
2022/02/18 04:53:23;;;;;;;23.70;3.50;;;7.00;99.90;;;7.63;100.00;97544.88;5033295;28;20490;-80
2022/02/18 04:55:54;;;;;;;23.53;6.50;;;7.00;99.90;;;7.66;100.00;97543.69;5032908;28;20474;-78
2022/02/18 04:58:23;;;;;;;14.17;3.23;;;7.00;99.90;;;7.65;100.00;97542.09;5036686;28;20473;-78
2022/02/18 05:00:53;;;;;;;13.87;3.20;;;7.00;99.90;;;7.66;100.00;97534.09;5037067;28;20476;-78
2022/02/18 05:03:24;;;;;;;22.10;4.00;;;6.90;99.90;;;7.65;100.00;97532.47;5036621;28;21152;-78
2022/02/18 05:05:55;;;;;;;17.80;3.70;;;6.90;99.90;;;7.66;100.00;97544.50;5037678;28;20985;-78
2022/02/18 05:08:25;;;;;;;12.00;2.90;;;6.90;99.90;;;7.65;100.00;97558.50;5034015;28;20496;-80
2022/02/18 05:10:57;;;;;;;19.77;4.80;;;6.90;99.90;;;7.64;100.00;97535.25;5034492;28;20895;-78
2022/02/18 05:13:26;;;;;;;24.67;3.80;;;7.00;99.90;;;7.65;100.00;97529.06;5032753;28;20525;-78
2022/02/18 05:15:56;;;;;;;21.70;3.73;;;7.00;99.90;;;7.66;100.00;97522.88;5037137;28;20449;-78
2022/02/18 05:18:26;;;;;;;18.77;4.60;;;7.10;99.90;;;7.65;100.00;97521.25;5035667;28;20461;-78
2022/02/18 05:20:56;;;;;;;20.77;3.73;;;7.00;99.90;;;7.65;100.00;97501.25;5036789;28;20465;-78
2022/02/18 05:23:25;;;;;;;16.97;3.90;;;6.90;99.90;;;7.67;100.00;97488.88;5037374;28;20465;-80
2022/02/18 05:25:56;;;;;;;17.90;6.63;;;6.90;99.90;;;7.64;100.00;97473.63;5035605;28;20465;-78
2022/02/18 05:28:26;;;;;;;28.90;4.53;;;7.00;99.90;;;7.62;100.00;97465.19;5035657;28;20511;-77
2022/02/18 05:30:56;;;;;;;17.47;3.67;;;6.80;99.90;;;7.64;100.00;97462.41;5035396;28;20462;-78
2022/02/18 05:33:27;;;;;;;21.33;3.90;;;6.90;99.90;;;7.63;100.00;97461.63;5039032;28;21055;-79
2022/02/18 05:35:58;;;;;;;14.57;2.93;;;6.90;99.90;;;7.63;100.00;97447.81;5040884;28;20453;-80
2022/02/18 05:38:28;;;;;;;16.47;3.80;;;6.90;99.90;;;7.64;100.00;97437.19;5040727;28;20480;-80
2022/02/18 05:40:59;;;;;;;17.30;3.77;;;6.80;99.90;;;7.64;100.00;97436.38;5039554;28;20458;-79
2022/02/18 05:43:31;;;;;;;16.20;3.60;;;6.80;99.90;;;7.60;100.00;97447.16;5040739;28;20472;-80
2022/02/18 05:46:03;;;;;;;25.60;3.90;;;6.90;99.90;;;7.61;100.00;97427.16;5040387;28;20540;-79
2022/02/18 05:48:35;;;;;;;14.90;3.40;;;6.70;99.90;;;7.61;100.00;97421.97;5040919;28;20496;-79
2022/02/18 05:51:05;;;;;;;23.20;3.90;;;6.70;99.90;;;7.64;100.00;97415.56;5040483;28;20492;-80
2022/02/18 05:53:35;;;;;;;21.03;3.80;;;6.70;99.90;;;7.61;100.00;97408.94;5038831;28;20524;-79
2022/02/18 05:56:07;;;;;;;16.17;4.00;;;6.70;99.90;;;7.62;100.00;97412.34;5040251;28;20528;-79
2022/02/18 05:58:37;;;;;;;14.67;4.07;;;6.70;99.90;;;7.60;100.00;97395.13;5041000;28;20511;-80
2022/02/18 06:01:07;;;;;;;15.13;4.00;;;6.80;99.90;;;7.62;100.00;97381.13;5037521;28;20486;-79
2022/02/18 06:03:38;;;;;;;14.67;3.03;;;6.80;99.90;;;7.62;100.00;97368.13;5037825;28;20575;-79
2022/02/18 06:06:09;;;;;;;23.57;4.57;;;6.80;99.90;;;7.66;100.00;97361.56;5036129;28;20450;-80
2022/02/18 06:08:39;;;;;;;20.73;3.33;;;6.90;99.90;;;7.66;100.00;97359.78;5036523;28;20538;-79
2022/02/18 06:11:13;;;;;;;21.73;6.07;;;6.80;99.90;;;7.67;100.00;97345.75;5036946;28;20495;-78
2022/02/18 06:13:43;;;;;;;21.50;4.03;;;6.80;99.90;;;7.68;100.00;97349.16;5037193;28;20521;-79
2022/02/18 06:16:15;;;;;;;23.83;4.40;;;6.80;99.90;;;7.67;100.00;97344.97;5036661;28;20868;-79
2022/02/18 06:18:45;;;;;;;15.97;3.93;;;6.80;99.90;;;7.68;100.00;97343.97;5037689;28;20454;-79
2022/02/18 06:21:15;;;;;;;17.43;3.80;;;6.90;99.90;;;7.69;100.00;97337.78;5036869;28;21068;-79
2022/02/18 06:23:46;;;;;;;20.23;3.73;;;7.00;99.90;;;7.71;100.00;97349.59;5038499;28;20945;-79
2022/02/18 06:26:18;;;;;;;22.23;3.50;;;7.00;99.90;;;7.75;100.00;97337.03;5033519;28;20462;-79
2022/02/18 06:28:49;;;;;;;20.77;4.50;;;7.00;99.90;;;7.74;100.00;97330.22;5035846;28;20446;-79
2022/02/18 06:31:19;;;;;;;13.00;3.40;;;7.00;99.90;;;7.75;100.00;97324.00;5035780;28;20472;-78
2022/02/18 06:33:50;;;;;;;15.13;3.20;;;7.00;99.90;;;7.77;100.00;97319.44;5035841;28;20573;-80
2022/02/18 06:36:20;;;;;;;25.13;4.33;;;7.00;99.90;;;7.77;100.00;97312.44;5035841;28;20454;-79
2022/02/18 06:38:51;;;;;;;22.47;4.33;;;7.10;99.90;;;7.79;100.00;97307.84;5036615;28;20877;-79
2022/02/18 06:41:22;;;;;;;23.50;3.90;;;7.10;99.90;;;7.79;100.00;97299.22;5040689;28;20496;-79
2022/02/18 06:43:54;;;;;;;19.43;3.53;;;7.20;99.90;;;7.79;100.00;97294.03;5039733;28;20457;-79
2022/02/18 06:46:25;;;;;;;17.30;4.63;;;7.20;99.90;;;7.79;100.00;97300.03;5039607;28;20822;-79
2022/02/18 06:48:54;;;;;;;17.23;4.07;;;7.20;99.90;;;7.81;100.00;97297.25;5036744;28;20465;-79
2022/02/18 06:51:24;;;;;;;12.40;3.53;;;7.20;99.90;;;7.83;100.00;97295.25;5039863;28;20477;-79
2022/02/18 06:53:56;;;;;;;26.43;4.50;;;7.20;99.90;;;7.85;100.00;97282.84;5039445;28;20501;-79
2022/02/18 06:56:48;;;;;;;15.67;4.97;;;7.30;99.90;;;7.87;100.00;97281.69;5039697;28;20495;-79
2022/02/18 06:59:18;;;;;;;16.07;3.97;;;7.30;99.90;;;7.89;100.00;97273.69;5039195;28;20452;-80
2022/02/18 07:01:50;;;;;;;17.80;3.60;;;7.30;99.90;;;7.89;100.00;97281.50;5037306;28;20488;-80
2022/02/18 07:04:20;;;;;;;13.70;3.37;;;7.30;99.90;;;7.90;100.00;97270.91;5039572;28;21027;-80
2022/02/18 07:06:51;;;;;;;11.43;3.67;;;7.30;99.90;;;7.91;100.00;97263.91;5039326;28;20462;-80
2022/02/18 07:09:22;;;;;;;10.20;3.30;;;7.40;99.90;;;7.93;100.00;97264.50;5039058;28;20920;-80
2022/02/18 07:11:54;;;;;;;15.33;2.87;;;7.40;99.90;;;7.96;100.00;97258.91;5039331;28;20449;-80
2022/02/18 07:14:28;;;;;;;12.47;3.10;;;7.40;99.90;;;7.98;100.00;97267.38;5038740;28;20497;-80
2022/02/18 07:16:59;;;;;;;12.33;3.03;;;7.40;99.90;;;8.00;100.00;97257.56;5038641;28;20807;-80
2022/02/18 07:19:30;;;;;;;8.80;3.40;;;7.50;99.90;;;8.01;100.00;97261.78;5039783;28;20516;-79
2022/02/18 07:22:00;;;;;;;7.17;2.67;;;7.50;99.90;;;8.01;100.00;97251.34;5038886;28;20835;-80
2022/02/18 07:24:30;;;;;;;8.57;2.60;;;7.50;99.90;;;8.00;100.00;97239.31;5038941;28;20449;-80
2022/02/18 07:27:02;;;;;;;9.83;2.87;;;7.50;99.90;;;8.00;100.00;97239.31;5038247;28;20573;-80
2022/02/18 07:29:33;;;;;;;8.60;2.70;;;7.40;99.90;;;8.03;100.00;97234.53;5038770;28;20822;-79
2022/02/18 07:32:06;;;;;;;7.20;3.13;;;7.50;99.90;;;8.02;100.00;97242.53;5039378;28;20445;-79
2022/02/18 07:34:36;;;;;;;11.77;2.57;;;7.50;99.90;;;8.04;100.00;97230.16;5038808;28;20493;-79
2022/02/18 07:37:07;;;;;;;7.40;2.40;;;7.50;99.90;;;8.05;100.00;97226.56;5039249;28;20983;-80
2022/02/18 07:39:38;;;;;;;6.27;2.40;;;7.50;99.90;;;8.07;100.00;97208.94;5038140;28;20812;-80
2022/02/18 07:42:10;;;;;;;10.90;2.33;;;7.50;99.90;;;8.09;100.00;97201.72;5035605;28;21002;-79
2022/02/18 07:44:41;;;;;;;6.97;2.20;;;7.50;99.90;;;8.12;100.00;97185.75;5038597;28;20909;-79
2022/02/18 07:47:12;;;;;;;6.20;1.67;;;7.50;99.90;;;8.13;100.00;97195.13;5038573;28;20473;-80
2022/02/18 07:49:50;;;;;;;4.20;2.07;;;7.50;99.90;;;8.16;100.00;97194.75;5040020;28;20815;-79
2022/02/18 07:52:22;;;;;;;3.40;2.00;;;7.60;99.90;;;8.19;100.00;97181.34;5038200;28;20496;-79
2022/02/18 07:54:54;;;;;;;6.00;2.00;;;7.60;99.90;;;8.22;100.00;97180.19;5034239;28;20500;-79
2022/02/18 07:57:28;;;;;;;5.10;1.73;;;7.60;99.90;;;8.27;100.00;97183.78;5034882;28;20457;-79
2022/02/18 07:59:59;;;;;;;3.20;1.50;;;7.60;99.90;;;8.30;100.00;97187.84;5034699;28;20833;-80
2022/02/18 08:02:30;;;;;;;1.43;1.10;;;7.70;99.90;;;8.35;100.00;97181.06;5035663;28;20535;-79
2022/02/18 08:05:01;;;;;;;3.40;1.70;;;7.80;99.90;;;8.38;100.00;97165.03;5035345;28;20450;-80
2022/02/18 08:07:31;;;;;;;2.40;1.60;;;7.70;99.90;;;8.42;100.00;97161.06;5034594;28;20946;-79
2022/02/18 08:10:01;;;;;;;2.33;1.80;;;7.80;99.90;;;8.44;100.00;97159.03;5034624;28;20821;-79
2022/02/18 08:12:33;;;;;;;1.83;1.67;;;7.90;99.90;;;8.48;100.00;97154.25;5035540;28;21042;-79
2022/02/18 08:15:04;;;;;;;1.83;1.43;;;7.90;99.90;;;8.52;100.00;97151.06;5037031;28;20480;-79
2022/02/18 08:17:36;;;;;;;1.63;1.53;;;7.90;99.90;;;8.57;100.00;97156.47;5037838;28;21006;-79
2022/02/18 08:20:11;;;;;;;2.17;1.53;;;8.00;99.90;;;8.63;100.00;97154.09;5036340;28;20829;-80
2022/02/18 08:22:41;;;;;;;1.80;1.33;;;8.10;99.90;;;8.67;100.00;97150.09;5038628;28;20448;-79
2022/02/18 08:25:12;;;;;;;3.57;2.13;;;8.10;99.90;;;8.73;100.00;97149.31;5038982;28;20504;-80
2022/02/18 08:27:52;;;;;;;1.60;1.50;;;8.20;99.90;;;8.78;100.00;97141.72;5040605;28;20489;-79
2022/02/18 08:30:25;;;;;;;1.57;1.23;;;8.20;99.90;;;8.81;100.00;97136.09;5040196;28;20453;-80
2022/02/18 08:32:56;;;;;;;3.53;1.20;;;8.30;99.90;;;8.86;100.00;97136.28;5040266;28;20942;-79
2022/02/18 08:35:28;;;;;;;1.60;1.50;;;8.30;99.90;;;8.93;100.00;97131.88;5039121;28;20914;-79
2022/02/18 08:37:58;;;;;;;1.90;1.20;;;8.40;99.90;;;8.98;100.00;97129.50;5040865;28;20548;-80
2022/02/18 08:40:28;;;;;;;2.93;2.00;;;8.40;99.90;;;9.04;100.00;97123.47;5042181;28;20457;-79
2022/02/18 08:42:59;;;;;;;1.63;1.40;;;8.50;99.90;;;9.10;100.00;97114.84;5042654;28;20481;-79
2022/02/18 08:45:29;;;;;;;1.80;1.70;;;8.50;99.90;;;9.14;100.00;97103.03;5042130;28;20840;-79
2022/02/18 08:48:00;;;;;;;2.73;1.80;;;8.60;99.90;;;9.19;100.00;97113.66;5042186;28;20465;-79
2022/02/18 08:50:31;;;;;;;4.60;1.80;;;8.70;99.90;;;9.25;100.00;97110.25;5041181;28;20549;-80
2022/02/18 08:53:00;;;;;;;2.83;2.20;;;8.70;99.90;;;9.30;100.00;97092.16;5041857;28;20545;-79
2022/02/18 08:55:30;;;;;;;2.90;1.83;;;8.80;99.90;;;9.35;100.00;97094.97;5038796;28;20499;-77
2022/02/18 08:58:01;;;;;;;2.63;1.97;;;8.80;99.90;;;9.42;100.00;97087.94;5040804;28;20454;-80
2022/02/18 09:00:32;;;;;;;4.33;2.20;;;8.90;99.90;;;9.47;100.00;97084.75;5040167;28;20445;-79
2022/02/18 09:03:01;;;;;;;2.70;2.10;;;8.90;99.90;;;9.53;100.00;97082.13;5040882;28;20487;-80
2022/02/18 09:05:30;;;;;;;1.83;1.60;;;9.00;99.90;;;9.61;100.00;97078.50;5041389;28;20441;-79
2022/02/18 09:08:01;;;;;;;2.80;1.77;;;9.10;99.90;;;9.67;100.00;97079.47;5040405;28;20467;-80
2022/02/18 09:10:31;;;;;;;1.60;1.50;;;9.20;99.90;;;9.73;100.00;97074.22;5040462;28;20488;-79
2022/02/18 09:13:03;;;;;;;1.50;1.10;;;9.20;99.90;;;9.80;100.00;97074.22;5039776;28;20941;-79
2022/02/18 09:15:34;;;;;;;1.40;1.30;;;9.30;99.90;;;9.86;100.00;97071.56;5040894;28;20945;-80
2022/02/18 09:18:03;;;;;;;1.50;1.40;;;9.40;99.90;;;9.92;100.00;97057.72;5041117;28;20454;-80
2022/02/18 09:20:34;;;;;;;2.00;1.20;;;9.50;99.90;;;9.96;100.00;97056.25;5040315;28;20481;-79
2022/02/18 09:23:04;;;;;;;1.40;1.30;;;9.50;99.90;;;10.02;100.00;97052.03;5040798;28;20469;-79
2022/02/18 09:25:33;;;;;;;1.53;1.40;;;9.50;99.90;;;10.04;100.00;97047.41;5041799;28;20441;-79
2022/02/18 09:28:05;;;;;;;1.20;1.10;;;9.60;99.90;;;10.09;100.00;97055.41;5040240;28;20794;-80
2022/02/18 09:30:41;;;;;;;1.10;1.00;;;9.60;99.90;;;10.13;100.00;97039.09;5041716;28;20491;-79
2022/02/18 09:33:19;;;;;;;2.33;1.00;;;9.60;99.90;;;10.20;100.00;97035.72;5040336;28;20482;-79
2022/02/18 09:35:48;;;;;;;2.07;1.10;;;9.70;99.90;;;10.24;100.00;97032.44;5039083;28;21092;-79
2022/02/18 09:38:18;;;;;;;1.10;1.00;;;9.80;99.90;;;10.27;100.00;97031.25;5040929;28;20461;-79
2022/02/18 09:40:49;;;;;;;1.20;1.10;;;9.80;99.90;;;10.29;100.00;97022.19;5041137;28;20457;-79
2022/02/18 09:43:23;;;;;;;1.47;1.10;;;9.80;99.90;;;10.35;100.00;97021.34;5040600;28;20454;-79
2022/02/18 09:45:54;;;;;;;1.27;1.17;;;9.90;99.90;;;10.37;100.00;97019.31;5040021;28;20536;-79
2022/02/18 09:48:26;;;;;;;2.07;1.50;;;9.90;99.90;;;10.40;100.00;97016.28;5040946;28;20974;-79
2022/02/18 09:50:57;;;;;;;1.63;1.40;;;9.90;99.90;;;10.41;100.00;97017.88;5040768;28;20438;-79
2022/02/18 09:53:28;;;;;;;2.83;1.93;;;9.80;99.90;;;10.46;100.00;97012.81;5038074;28;20917;-79
2022/02/18 09:56:00;;;;;;;1.50;1.30;;;9.90;99.90;;;10.50;100.00;97005.38;5035828;28;20582;-79
2022/02/18 09:58:31;;;;;;;1.40;1.30;;;10.00;99.90;;;10.54;100.00;96990.84;5035189;28;20565;-79
2022/02/18 10:01:01;;;;;;;1.50;1.40;;;10.00;99.90;;;10.57;100.00;96983.41;5036755;28;20454;-79
2022/02/18 10:03:30;;;;;;;1.10;1.00;;;10.00;99.90;;;10.60;100.00;96980.34;5036211;28;20957;-79
2022/02/18 10:06:00;;;;;;;1.30;1.20;;;10.10;99.90;;;10.63;100.00;96986.16;5037535;28;20449;-79
2022/02/18 10:08:29;;;;;;;1.40;1.30;;;10.10;99.90;;;10.68;100.00;96973.25;5034483;28;20454;-79
2022/02/18 10:11:02;;;;;;;1.50;1.40;;;10.20;99.90;;;10.70;100.00;96958.94;5036598;28;20953;-79
2022/02/18 10:13:38;;;;;;;1.73;1.40;;;10.20;99.90;;;10.78;100.00;96950.03;5037220;28;20454;-79
2022/02/18 10:16:16;;;;;;;12.23;1.50;;;10.30;99.90;;;10.81;100.00;96960.06;5037154;28;20581;-79
2022/02/18 10:18:51;;;;;;;1.43;1.33;;;10.40;99.90;;;10.87;100.00;96948.72;5035694;28;20464;-79
2022/02/18 10:21:22;;;;;;;2.73;1.47;;;10.40;99.90;;;10.89;100.00;96947.53;5039032;28;20836;-79
2022/02/18 10:23:55;;;;;;;1.10;1.00;;;10.40;99.90;;;10.96;100.00;96942.22;5036489;28;20504;-79
2022/02/18 10:26:45;;;;;;;1.93;1.23;;;10.50;99.90;;;10.97;100.00;96928.91;5037362;28;20815;-80
2022/02/18 10:29:21;;;;;;;1.30;1.20;;;10.50;99.90;;;10.97;100.00;96934.16;5034359;28;20476;-80
2022/02/18 10:32:09;;;;;;;1.30;1.20;;;10.40;99.90;;;11.01;100.00;96926.66;5036261;28;20450;-79
2022/02/18 10:34:53;;;;;;;1.30;1.20;;;10.50;99.90;;;11.01;100.00;96909.16;5034654;28;20458;-79
2022/02/18 10:37:25;;;;;;;2.17;1.10;;;10.50;99.90;;;11.03;100.00;96916.81;5038269;28;20504;-79